createdAt,value
2019-01-15T00:02:06.147Z,19.37
2019-01-15T00:04:44.119Z,20.63
2019-01-15T00:07:13.950Z,26.20
2019-01-15T00:09:57.211Z,19.90
2019-01-15T00:12:26.888Z,17.53
2019-01-15T00:14:55.913Z,28.50
2019-01-15T00:17:24.927Z,17.93
2019-01-15T00:19:53.970Z,27.70
2019-01-15T00:22:33.407Z,24.13
2019-01-15T00:25:02.453Z,20.47
2019-01-15T00:27:31.486Z,22.30
2019-01-15T00:30:00.883Z,36.10
2019-01-15T00:32:36.570Z,23.93
2019-01-15T00:35:08.575Z,20.00
2019-01-15T00:37:39.434Z,21.80
2019-01-15T00:40:14.894Z,30.97
2019-01-15T00:42:44.291Z,39.03
2019-01-15T00:45:18.235Z,26.23
2019-01-15T00:47:47.404Z,28.93
2019-01-15T00:50:16.970Z,29.67
2019-01-15T00:52:46.876Z,26.40
2019-01-15T00:55:16.796Z,21.70
2019-01-15T00:57:48.031Z,22.77
2019-01-15T01:00:26.248Z,24.10
2019-01-15T01:02:55.359Z,36.83
2019-01-15T01:05:28.162Z,33.77
2019-01-15T01:07:58.903Z,23.10
2019-01-15T01:10:32.851Z,27.93
2019-01-15T01:13:10.255Z,25.77
2019-01-15T01:15:45.660Z,28.33
2019-01-15T01:18:16.919Z,21.90
2019-01-15T01:20:47.185Z,26.80
2019-01-15T01:23:38.119Z,23.50
2019-01-15T01:26:07.210Z,19.17
2019-01-15T01:28:38.677Z,22.67
2019-01-15T01:31:07.776Z,28.77
2019-01-15T01:33:41.788Z,22.13
2019-01-15T01:36:10.934Z,27.77
2019-01-15T01:38:43.687Z,25.67
2019-01-15T01:41:13.076Z,19.10
2019-01-15T01:43:42.124Z,23.43
2019-01-15T01:46:11.208Z,30.67
2019-01-15T01:48:41.804Z,22.70
2019-01-15T01:51:23.348Z,27.90
2019-01-15T01:53:52.407Z,19.73
2019-01-15T01:56:21.444Z,31.73
2019-01-15T01:58:51.694Z,30.77
2019-01-15T02:01:22.106Z,23.13
2019-01-15T02:03:51.189Z,33.57
2019-01-15T02:06:27.901Z,20.97
2019-01-15T02:08:56.963Z,31.40
2019-01-15T02:11:26.286Z,36.83
2019-01-15T02:13:56.870Z,19.87
2019-01-15T02:16:26.315Z,27.97
2019-01-15T02:18:59.681Z,15.80
2019-01-15T02:21:39.593Z,28.87
2019-01-15T02:24:10.049Z,26.33
2019-01-15T02:26:39.552Z,42.33
2019-01-15T02:29:13.935Z,21.70
2019-01-15T02:31:43.551Z,20.07
2019-01-15T02:34:12.682Z,34.67
2019-01-15T02:36:41.955Z,23.57
2019-01-15T02:39:12.790Z,23.40
2019-01-15T02:41:43.405Z,23.50
2019-01-15T02:44:12.426Z,24.10
2019-01-15T02:46:41.824Z,28.57
2019-01-15T02:49:10.862Z,23.20
2019-01-15T02:51:39.920Z,34.83
2019-01-15T02:54:09.757Z,26.27
2019-01-15T02:56:38.845Z,28.77
2019-01-15T02:59:08.210Z,23.07
2019-01-15T03:01:37.881Z,26.93
2019-01-15T03:04:06.909Z,30.10
2019-01-15T03:06:36.125Z,19.60
2019-01-15T03:09:08.432Z,18.17
2019-01-15T03:11:51.095Z,18.23
2019-01-15T03:14:20.103Z,17.63
2019-01-15T03:16:49.132Z,20.47
2019-01-15T03:19:18.178Z,22.60
2019-01-15T03:21:58.879Z,18.10
2019-01-15T03:24:28.624Z,16.93
2019-01-15T03:26:57.627Z,17.63
2019-01-15T03:29:29.599Z,25.67
2019-01-15T03:32:00.832Z,20.33
2019-01-15T03:34:30.387Z,24.13
2019-01-15T03:39:51.181Z,22.27
2019-01-15T03:42:25.489Z,18.47
2019-01-15T03:44:54.995Z,17.80
2019-01-15T03:47:26.091Z,15.30
2019-01-15T03:49:55.924Z,19.57
2019-01-15T03:52:24.969Z,18.37
2019-01-15T03:54:55.591Z,20.93
2019-01-15T03:57:29.568Z,16.40
2019-01-15T04:00:01.740Z,16.97
2019-01-15T04:02:30.945Z,14.60
2019-01-15T04:05:04.356Z,12.77
2019-01-15T04:07:33.749Z,10.30
2019-01-15T04:10:02.899Z,13.93
2019-01-15T04:12:36.402Z,15.10
2019-01-15T04:15:07.767Z,15.60
2019-01-15T04:17:39.255Z,14.33
2019-01-15T04:20:14.434Z,9.83
2019-01-15T04:22:43.441Z,11.37
2019-01-15T04:25:12.972Z,14.97
2019-01-15T04:27:44.384Z,19.87
2019-01-15T04:30:17.076Z,8.83
2019-01-15T04:32:46.629Z,13.20
2019-01-15T04:35:15.640Z,8.83
2019-01-15T04:37:45.201Z,10.83
2019-01-15T04:40:19.396Z,17.27
2019-01-15T04:42:48.836Z,10.90
2019-01-15T04:45:24.552Z,7.60
2019-01-15T04:47:53.884Z,13.40
2019-01-15T04:50:24.992Z,6.80
2019-01-15T04:52:59.272Z,9.83
2019-01-15T04:55:32.846Z,7.50
2019-01-15T04:58:14.732Z,6.20
2019-01-15T05:00:43.797Z,10.20
2019-01-15T05:03:13.402Z,12.33
2019-01-15T05:05:49.878Z,7.50
2019-01-15T05:08:24.119Z,9.50
2019-01-15T05:10:53.799Z,5.90
2019-01-15T05:13:31.273Z,10.63
2019-01-15T05:16:00.732Z,7.23
2019-01-15T05:18:37.413Z,5.20
2019-01-15T05:21:06.454Z,8.80
2019-01-15T05:23:37.424Z,8.50
2019-01-15T05:26:06.947Z,6.83
2019-01-15T05:28:40.029Z,5.73
2019-01-15T05:31:10.966Z,7.73
2019-01-15T05:33:42.660Z,13.70
2019-01-15T05:36:11.809Z,11.70
2019-01-15T05:38:41.337Z,9.47
2019-01-15T05:41:13.079Z,11.00
2019-01-15T05:43:43.665Z,6.50
2019-01-15T05:46:12.756Z,8.77
2019-01-15T05:48:41.796Z,8.70
2019-01-15T05:51:24.644Z,11.03
2019-01-15T05:53:53.716Z,7.83
2019-01-15T05:56:33.236Z,10.33
2019-01-15T05:59:13.138Z,12.33
2019-01-15T06:01:48.279Z,10.67
2019-01-15T06:04:17.671Z,8.10
2019-01-15T06:06:46.985Z,12.97
2019-01-15T06:09:17.009Z,15.40
2019-01-15T06:11:50.584Z,9.97
2019-01-15T06:14:21.552Z,5.60
2019-01-15T06:16:51.268Z,12.23
2019-01-15T06:19:20.788Z,11.50
2019-01-15T06:21:50.538Z,9.47
2019-01-15T06:24:26.850Z,13.50
2019-01-15T06:27:07.689Z,13.97
2019-01-15T06:29:37.082Z,15.17
2019-01-15T06:32:06.112Z,7.07
2019-01-15T06:34:35.536Z,7.43
2019-01-15T06:37:04.788Z,10.67
2019-01-15T06:39:35.192Z,14.07
2019-01-15T06:42:04.743Z,10.07
2019-01-15T06:44:34.590Z,9.40
2019-01-15T06:47:05.275Z,10.17
2019-01-15T06:49:38.733Z,18.83
2019-01-15T06:52:07.911Z,12.87
2019-01-15T06:54:37.162Z,17.13
2019-01-15T06:57:10.926Z,11.50
2019-01-15T06:59:40.426Z,16.33
2019-01-15T07:02:11.084Z,19.23
2019-01-15T07:04:48.529Z,12.90
2019-01-15T07:07:17.570Z,13.60
2019-01-15T07:09:46.620Z,16.77
2019-01-15T07:12:18.793Z,22.17
2019-01-15T07:14:49.057Z,14.97
2019-01-15T07:17:18.081Z,14.50
2019-01-15T07:19:47.214Z,13.07
2019-01-15T07:22:16.680Z,20.37
2019-01-15T07:24:45.693Z,23.13
2019-01-15T07:27:14.742Z,25.90
2019-01-15T07:29:50.613Z,14.77
2019-01-15T07:32:23.532Z,19.23
2019-01-15T07:34:52.974Z,20.10
2019-01-15T07:37:22.403Z,17.80
2019-01-15T07:39:51.895Z,22.43
2019-01-15T07:42:24.268Z,22.90
2019-01-15T07:44:53.395Z,20.93
2019-01-15T07:47:23.172Z,22.00
2019-01-15T07:49:52.914Z,28.77
2019-01-15T07:52:22.434Z,21.90
2019-01-15T07:54:52.354Z,16.70
2019-01-15T07:57:21.542Z,15.23
2019-01-15T07:59:51.503Z,16.23
2019-01-15T08:02:21.317Z,25.40
2019-01-15T08:04:50.360Z,14.90
2019-01-15T08:07:19.420Z,15.80
2019-01-15T08:09:48.463Z,17.20
2019-01-15T08:12:18.005Z,13.07
2019-01-15T08:14:47.032Z,20.87
2019-01-15T08:17:17.167Z,16.07
2019-01-15T08:19:46.286Z,19.10
2019-01-15T08:22:15.318Z,14.33
2019-01-15T08:24:44.467Z,15.90
2019-01-15T08:27:15.842Z,16.60
2019-01-15T08:29:44.877Z,15.33
2019-01-15T08:32:14.557Z,13.90
2019-01-15T08:34:43.602Z,16.23
2019-01-15T08:37:12.913Z,21.03
2019-01-15T08:39:43.793Z,12.43
2019-01-15T08:42:12.912Z,17.00
2019-01-15T08:44:42.116Z,12.60
2019-01-15T08:47:11.583Z,9.03
2019-01-15T08:49:40.674Z,9.60
2019-01-15T08:52:11.760Z,12.23
2019-01-15T08:54:43.830Z,8.17
2019-01-15T08:57:12.875Z,9.53
2019-01-15T08:59:42.270Z,8.40
2019-01-15T09:02:11.350Z,8.43
2019-01-15T09:04:40.402Z,9.43
2019-01-15T09:07:10.292Z,8.53
2019-01-15T09:09:40.731Z,9.37
2019-01-15T09:12:10.294Z,11.23
2019-01-15T09:14:39.306Z,7.97
2019-01-15T09:17:11.718Z,10.33
2019-01-15T09:19:41.075Z,7.37
2019-01-15T09:22:13.139Z,10.27
2019-01-15T09:24:42.221Z,14.17
2019-01-15T09:27:11.330Z,9.97
2019-01-15T09:29:41.382Z,7.07
2019-01-15T09:32:10.737Z,8.77
2019-01-15T09:34:40.074Z,12.90
2019-01-15T09:37:11.418Z,14.57
2019-01-15T09:39:40.530Z,14.30
2019-01-15T09:42:11.393Z,8.83
2019-01-15T09:44:41.323Z,10.33
2019-01-15T09:47:10.372Z,14.87
2019-01-15T09:49:39.551Z,11.40
2019-01-15T09:52:12.987Z,7.47
2019-01-15T09:54:43.565Z,11.83
2019-01-15T09:57:12.988Z,12.43
2019-01-15T09:59:42.094Z,11.10
2019-01-15T10:02:11.372Z,11.87
2019-01-15T10:04:41.210Z,14.10
2019-01-15T10:07:10.694Z,10.67
2019-01-15T10:09:41.020Z,9.60
2019-01-15T10:12:10.625Z,9.67
2019-01-15T10:14:41.472Z,10.30
2019-01-15T10:17:11.079Z,18.00
2019-01-15T10:19:41.959Z,14.97
2019-01-15T10:22:23.838Z,13.20
2019-01-15T10:24:55.095Z,11.10
2019-01-15T10:27:24.922Z,21.60
2019-01-15T10:29:59.258Z,14.17
2019-01-15T10:32:52.660Z,15.33
2019-01-15T10:35:49.732Z,17.20
2019-01-15T10:38:19.541Z,11.93
2019-01-15T10:40:49.055Z,17.07
2019-01-15T10:43:19.045Z,16.07
2019-01-15T10:45:54.261Z,16.37
2019-01-15T10:48:27.862Z,10.87
2019-01-15T10:50:58.430Z,11.70
2019-01-15T10:53:28.094Z,17.47
2019-01-15T10:55:57.644Z,15.60
2019-01-15T10:58:29.447Z,16.90
2019-01-15T11:00:59.512Z,15.90
2019-01-15T11:03:29.173Z,11.40
2019-01-15T11:05:58.738Z,17.57
2019-01-15T11:08:28.262Z,16.47
2019-01-15T11:11:02.107Z,11.40
2019-01-15T11:13:31.167Z,12.30
2019-01-15T11:16:00.751Z,15.13
2019-01-15T11:18:32.971Z,14.53
2019-01-15T11:21:03.307Z,25.90
2019-01-15T11:23:32.429Z,13.03
2019-01-15T11:26:02.367Z,16.07
2019-01-15T11:28:35.953Z,15.70
2019-01-15T11:31:05.846Z,13.60
2019-01-15T11:33:40.814Z,12.53
2019-01-15T11:36:13.676Z,11.77
2019-01-15T11:38:43.968Z,9.80
2019-01-15T11:41:14.103Z,12.37
2019-01-15T11:43:43.227Z,12.97
2019-01-15T11:46:13.353Z,12.60
2019-01-15T11:48:47.835Z,16.13
2019-01-15T11:51:20.084Z,14.07
2019-01-15T11:53:51.765Z,15.33
2019-01-15T11:56:21.113Z,9.93
2019-01-15T11:58:54.952Z,27.17
2019-01-15T12:01:50.015Z,18.07
2019-01-15T12:05:11.813Z,15.60
2019-01-15T12:08:17.838Z,22.60
2019-01-15T12:11:08.999Z,20.20
2019-01-15T12:13:55.667Z,12.00
2019-01-15T12:16:49.923Z,17.73
2019-01-15T12:22:47.365Z,11.93
2019-01-15T12:25:31.976Z,17.00
2019-01-15T12:28:30.160Z,16.90
2019-01-15T12:31:22.602Z,16.17
2019-01-15T12:34:16.750Z,17.70
2019-01-15T12:37:04.769Z,11.30
2019-01-15T12:40:10.057Z,14.50
2019-01-15T12:42:58.499Z,18.40
2019-01-15T12:45:48.904Z,12.40
2019-01-15T12:48:38.479Z,17.67
2019-01-15T12:51:32.427Z,18.80
2019-01-15T12:54:20.599Z,12.80
2019-01-15T12:57:09.067Z,16.37
2019-01-15T12:59:56.795Z,20.73
2019-01-15T13:02:47.573Z,11.80
2019-01-15T13:05:48.597Z,12.13
2019-01-15T13:08:36.588Z,12.90
2019-01-15T13:11:17.987Z,12.97
2019-01-15T13:14:08.278Z,12.57
2019-01-15T13:16:57.098Z,10.73
2019-01-15T13:19:40.938Z,10.77
2019-01-15T13:22:28.628Z,16.47
2019-01-15T13:25:16.263Z,16.70
2019-01-15T13:28:03.668Z,14.03
2019-01-15T13:30:56.583Z,18.97
2019-01-15T13:33:56.001Z,14.93
2019-01-15T13:36:54.674Z,18.23
2019-01-15T13:39:53.971Z,12.37
2019-01-15T13:42:50.317Z,8.90
2019-01-15T13:45:50.619Z,19.97
2019-01-15T13:48:31.018Z,17.87
2019-01-15T13:51:20.546Z,10.47
2019-01-15T13:54:32.084Z,14.93
2019-01-15T13:57:19.589Z,22.50
2019-01-15T14:00:20.371Z,12.67
2019-01-15T14:02:56.837Z,15.33
2019-01-15T14:05:45.807Z,19.07
2019-01-15T14:08:34.165Z,9.67
2019-01-15T14:11:25.415Z,13.97
2019-01-15T14:14:16.607Z,16.57
2019-01-15T14:17:14.614Z,16.60
2019-01-15T14:20:05.263Z,16.40
2019-01-15T14:22:57.628Z,15.70
2019-01-15T14:26:04.400Z,14.33
2019-01-15T14:29:07.730Z,16.30
2019-01-15T14:31:48.807Z,20.30
2019-01-15T14:34:39.621Z,11.30
2019-01-15T14:37:33.830Z,11.93
2019-01-15T14:43:09.595Z,10.57
2019-01-15T14:46:00.260Z,10.97
2019-01-15T14:48:46.289Z,20.07
2019-01-15T14:51:53.516Z,15.13
2019-01-15T14:54:32.595Z,9.23
2019-01-15T14:57:27.133Z,14.10
2019-01-15T15:00:26.319Z,8.97
2019-01-15T15:03:26.977Z,12.93
2019-01-15T15:06:28.481Z,20.03
2019-01-15T15:09:15.951Z,13.03
2019-01-15T15:12:23.116Z,17.87
2019-01-15T15:15:11.447Z,16.27
2019-01-15T15:17:53.452Z,15.10
2019-01-15T15:20:41.585Z,20.33
2019-01-15T15:23:31.188Z,8.57
2019-01-15T15:26:22.777Z,17.67
2019-01-15T15:29:09.863Z,11.47
2019-01-15T15:32:05.865Z,13.13
2019-01-15T15:34:46.696Z,19.43
2019-01-15T15:37:38.812Z,26.87
2019-01-15T15:40:21.204Z,10.23
2019-01-15T15:43:04.963Z,13.33
2019-01-15T15:46:11.436Z,19.37
2019-01-15T15:49:02.001Z,10.90
2019-01-15T15:51:52.251Z,23.17
2019-01-15T15:54:34.152Z,11.10
2019-01-15T15:57:42.766Z,11.97
2019-01-15T16:00:31.812Z,11.50
2019-01-15T16:03:29.005Z,12.13
2019-01-15T16:06:17.262Z,11.07
2019-01-15T16:09:04.571Z,15.20
2019-01-15T16:11:52.593Z,12.67
2019-01-15T16:14:30.337Z,15.93
2019-01-15T16:17:17.207Z,20.10
2019-01-15T16:20:02.035Z,13.90
2019-01-15T16:22:53.225Z,15.73
2019-01-15T16:25:47.472Z,21.37
2019-01-15T16:28:34.591Z,14.90
2019-01-15T16:31:25.608Z,15.70
2019-01-15T16:34:13.170Z,12.07
2019-01-15T16:37:00.100Z,13.20
2019-01-15T16:39:54.287Z,12.83
2019-01-15T16:42:41.438Z,15.07
2019-01-15T16:45:34.614Z,12.47
2019-01-15T16:48:26.062Z,12.27
2019-01-15T16:51:14.180Z,11.77
2019-01-15T16:54:01.085Z,12.97
2019-01-15T16:56:48.620Z,19.10
2019-01-15T16:59:38.644Z,17.13
2019-01-15T17:02:32.836Z,11.37
2019-01-15T17:05:12.062Z,11.87
2019-01-15T17:07:59.162Z,12.57
2019-01-15T17:10:47.582Z,16.87
2019-01-15T17:13:35.673Z,12.23
2019-01-15T17:16:34.111Z,20.73
2019-01-15T17:19:27.164Z,20.63
2019-01-15T17:22:21.048Z,19.00
2019-01-15T17:25:14.319Z,14.80
2019-01-15T17:28:01.030Z,22.23
2019-01-15T17:30:51.251Z,17.70
2019-01-15T17:33:42.289Z,11.03
2019-01-15T17:36:33.262Z,15.07
2019-01-15T17:39:24.443Z,12.07
2019-01-15T17:42:18.852Z,16.03
2019-01-15T17:45:13.151Z,11.20
2019-01-15T17:48:00.214Z,16.40
2019-01-15T17:50:47.337Z,16.73
2019-01-15T17:53:34.283Z,10.20
2019-01-15T17:56:21.083Z,10.50
2019-01-15T17:59:17.860Z,14.30
2019-01-15T18:02:05.975Z,9.97
2019-01-15T18:05:00.247Z,7.73
2019-01-15T18:07:50.158Z,8.60
2019-01-15T18:10:40.099Z,8.87
2019-01-15T18:13:31.535Z,8.00
2019-01-15T18:16:23.111Z,15.73
2019-01-15T18:19:05.298Z,16.17
2019-01-15T18:21:52.824Z,8.97
2019-01-15T18:25:00.022Z,10.90
2019-01-15T18:27:47.332Z,6.37
2019-01-15T18:30:54.907Z,8.37
2019-01-15T18:33:42.003Z,8.27
2019-01-15T18:36:22.721Z,9.60
2019-01-15T18:39:11.298Z,4.10
2019-01-15T18:42:09.910Z,11.33
2019-01-15T18:44:58.504Z,11.87
2019-01-15T18:47:46.965Z,7.33
2019-01-15T18:50:35.613Z,11.67
2019-01-15T18:53:24.012Z,7.43
2019-01-15T18:56:14.983Z,8.97
2019-01-15T18:59:09.007Z,8.63
2019-01-15T19:01:57.542Z,11.53
2019-01-15T19:04:44.492Z,10.87
2019-01-15T19:07:31.524Z,11.63
2019-01-15T19:10:20.498Z,11.77
2019-01-15T19:13:00.026Z,16.40
2019-01-15T19:15:46.938Z,8.97
2019-01-15T19:18:46.939Z,8.70
2019-01-15T19:21:44.585Z,16.37
2019-01-15T19:24:32.049Z,14.23
2019-01-15T19:27:20.192Z,11.60
2019-01-15T19:30:15.078Z,10.77
2019-01-15T19:33:02.511Z,10.23
2019-01-15T19:35:49.939Z,13.13
2019-01-15T19:38:47.832Z,8.77
2019-01-15T19:41:36.546Z,9.30
2019-01-15T19:44:23.858Z,11.63
2019-01-15T19:47:10.650Z,11.07
2019-01-15T19:49:53.902Z,12.30
2019-01-15T19:52:45.691Z,8.73
2019-01-15T19:55:31.502Z,7.33
2019-01-15T19:58:19.985Z,14.97
2019-01-15T20:01:11.675Z,7.97
2019-01-15T20:03:56.475Z,10.90
2019-01-15T20:06:44.038Z,15.73
2019-01-15T20:09:51.218Z,7.50
2019-01-15T20:12:41.417Z,10.70
2019-01-15T20:15:31.020Z,8.80
2019-01-15T20:18:14.180Z,9.30
2019-01-15T20:21:01.437Z,9.50
2019-01-15T20:23:39.854Z,8.17
2019-01-15T20:26:20.717Z,10.90
2019-01-15T20:29:20.826Z,8.97
2019-01-15T20:32:11.920Z,9.10
2019-01-15T20:35:12.865Z,9.40
2019-01-15T20:38:03.889Z,11.93
2019-01-15T20:40:51.813Z,7.37
2019-01-15T20:43:34.079Z,7.80
2019-01-15T20:46:26.092Z,9.67
2019-01-15T20:49:29.553Z,8.80
2019-01-15T20:52:26.853Z,7.60
2019-01-15T20:55:13.659Z,8.73
2019-01-15T20:58:05.546Z,9.47
2019-01-15T21:00:49.358Z,8.07
2019-01-15T21:03:37.674Z,6.30
2019-01-15T21:06:19.239Z,6.03
2019-01-15T21:08:59.236Z,8.47
2019-01-15T21:11:50.599Z,5.40
2019-01-15T21:14:37.653Z,3.73
2019-01-15T21:17:20.358Z,4.63
2019-01-15T21:20:00.611Z,4.43
2019-01-15T21:23:19.160Z,5.80
2019-01-15T21:26:13.217Z,7.63
2019-01-15T21:29:05.859Z,5.47
2019-01-15T21:32:09.315Z,8.97
2019-01-15T21:34:59.326Z,11.90
2019-01-15T21:37:57.207Z,6.37
2019-01-15T21:40:39.394Z,8.13
2019-01-15T21:43:33.302Z,6.67
2019-01-15T21:46:24.258Z,5.80
2019-01-15T21:49:12.422Z,7.23
2019-01-15T21:52:09.633Z,7.87
2019-01-15T21:55:04.093Z,7.17
2019-01-15T21:57:46.229Z,4.63
2019-01-15T22:00:30.725Z,7.17
2019-01-15T22:03:16.818Z,8.40
2019-01-15T22:06:12.411Z,7.13
2019-01-15T22:09:13.175Z,8.03
2019-01-15T22:11:59.210Z,9.70
2019-01-15T22:14:50.435Z,5.00
2019-01-15T22:17:31.376Z,7.73
2019-01-15T22:20:19.736Z,9.37
2019-01-15T22:23:06.879Z,5.70
2019-01-15T22:25:55.769Z,7.27
2019-01-15T22:28:43.865Z,7.60
2019-01-15T22:31:21.906Z,5.53
2019-01-15T22:34:06.668Z,6.13
2019-01-15T22:37:01.098Z,4.60
2019-01-15T22:39:52.492Z,5.70
2019-01-15T22:42:39.365Z,6.67
2019-01-15T22:45:37.049Z,10.20
2019-01-15T22:48:25.134Z,6.67
2019-01-15T22:51:31.738Z,7.13
2019-01-15T22:54:18.514Z,8.60
2019-01-15T22:57:08.685Z,8.73
2019-01-15T22:59:58.383Z,4.53
2019-01-15T23:02:47.689Z,11.17
2019-01-15T23:05:32.919Z,6.07
2019-01-15T23:08:21.130Z,5.43
2019-01-15T23:11:05.307Z,8.23
2019-01-15T23:13:44.297Z,5.60
2019-01-15T23:16:31.678Z,6.90
2019-01-15T23:19:12.022Z,4.83
2019-01-15T23:21:47.278Z,5.50
2019-01-15T23:24:34.193Z,5.07
2019-01-15T23:27:19.270Z,6.43
2019-01-15T23:30:13.278Z,5.17
2019-01-15T23:32:52.947Z,5.83
2019-01-15T23:35:35.059Z,5.97
2019-01-15T23:38:23.798Z,4.97
2019-01-15T23:41:14.719Z,5.67
2019-01-15T23:43:55.793Z,6.17
2019-01-15T23:46:34.773Z,7.07
2019-01-15T23:49:23.917Z,9.67
2019-01-15T23:52:18.875Z,4.97
2019-01-15T23:55:15.051Z,6.13
2019-01-15T23:57:56.573Z,5.17
